Terminal Aerodrome Forecast
Issued by NWS Jacksonville, FL

Current Version | Previous Version | Text Only | Print | Product List | Glossary On
Versions: 1 2 3 4 5 6 7 8 9 10 11 12 13 14 15 16
696
FTUS42 KJAX 142325
TAFGNV
TAF
KGNV 142325Z 1500/1524 23003KT P6SM SCT120 BKN250
      TEMPO 1508/1512 4SM BR SCT030 BKN120
     FM151600 24007KT P6SM SCT030 BKN100
     FM152100 27007KT P6SM SCT040 BKN120=

USA.gov is the U.S. government's official web portal to all federal, state and local government web resources and services.